sensor_id;sensor_type;location;lat;lon;timestamp;P1;durP1;ratioP1;P2;durP2;ratioP2
8986;SDS011;4529;51.360;12.474;2022-12-07T00:03:47;6.07;;;4.33;;
8986;SDS011;4529;51.360;12.474;2022-12-07T00:08:49;7.13;;;4.83;;
8986;SDS011;4529;51.360;12.474;2022-12-07T00:13:54;7.77;;;5.07;;
8986;SDS011;4529;51.360;12.474;2022-12-07T00:18:57;8.73;;;5.13;;
8986;SDS011;4529;51.360;12.474;2022-12-07T00:24:02;8.73;;;5.33;;
8986;SDS011;4529;51.360;12.474;2022-12-07T00:29:07;9.43;;;5.67;;
8986;SDS011;4529;51.360;12.474;2022-12-07T00:34:12;9.47;;;5.40;;
8986;SDS011;4529;51.360;12.474;2022-12-07T00:39:16;6.57;;;4.67;;
8986;SDS011;4529;51.360;12.474;2022-12-07T00:44:19;9.90;;;5.73;;
8986;SDS011;4529;51.360;12.474;2022-12-07T00:49:23;9.30;;;5.70;;
8986;SDS011;4529;51.360;12.474;2022-12-07T00:54:26;8.90;;;5.43;;
8986;SDS011;4529;51.360;12.474;2022-12-07T00:59:30;8.37;;;5.73;;
8986;SDS011;4529;51.360;12.474;2022-12-07T01:04:34;10.20;;;6.23;;
8986;SDS011;4529;51.360;12.474;2022-12-07T01:09:38;9.17;;;5.73;;
8986;SDS011;4529;51.360;12.474;2022-12-07T01:14:42;8.83;;;5.83;;
8986;SDS011;4529;51.360;12.474;2022-12-07T01:19:45;9.67;;;5.67;;
8986;SDS011;4529;51.360;12.474;2022-12-07T01:24:49;8.60;;;5.77;;
8986;SDS011;4529;51.360;12.474;2022-12-07T01:29:53;8.87;;;5.87;;
8986;SDS011;4529;51.360;12.474;2022-12-07T01:34:57;9.03;;;6.00;;
8986;SDS011;4529;51.360;12.474;2022-12-07T01:40:02;11.23;;;6.27;;
8986;SDS011;4529;51.360;12.474;2022-12-07T01:45:34;8.90;;;5.37;;
8986;SDS011;4529;51.360;12.474;2022-12-07T01:50:44;10.43;;;6.10;;
8986;SDS011;4529;51.360;12.474;2022-12-07T01:55:49;8.53;;;5.70;;
8986;SDS011;4529;51.360;12.474;2022-12-07T02:00:52;8.63;;;5.87;;
8986;SDS011;4529;51.360;12.474;2022-12-07T02:05:55;8.77;;;5.50;;
8986;SDS011;4529;51.360;12.474;2022-12-07T02:10:59;9.33;;;5.83;;
8986;SDS011;4529;51.360;12.474;2022-12-07T02:16:05;9.07;;;5.93;;
8986;SDS011;4529;51.360;12.474;2022-12-07T02:26:49;9.10;;;6.10;;
8986;SDS011;4529;51.360;12.474;2022-12-07T02:37:21;7.87;;;5.07;;
8986;SDS011;4529;51.360;12.474;2022-12-07T02:42:38;8.90;;;5.33;;
8986;SDS011;4529;51.360;12.474;2022-12-07T02:47:40;9.83;;;5.67;;
8986;SDS011;4529;51.360;12.474;2022-12-07T02:52:44;8.90;;;5.50;;
8986;SDS011;4529;51.360;12.474;2022-12-07T02:58:01;9.73;;;5.27;;
8986;SDS011;4529;51.360;12.474;2022-12-07T03:03:04;9.57;;;5.70;;
8986;SDS011;4529;51.360;12.474;2022-12-07T03:08:10;8.20;;;5.20;;
8986;SDS011;4529;51.360;12.474;2022-12-07T03:13:39;11.20;;;5.90;;
8986;SDS011;4529;51.360;12.474;2022-12-07T03:19:02;7.20;;;5.10;;
8986;SDS011;4529;51.360;12.474;2022-12-07T03:24:12;7.47;;;5.17;;
8986;SDS011;4529;51.360;12.474;2022-12-07T03:29:17;7.63;;;5.17;;
8986;SDS011;4529;51.360;12.474;2022-12-07T03:39:37;6.83;;;4.43;;
8986;SDS011;4529;51.360;12.474;2022-12-07T03:44:39;7.13;;;4.73;;
8986;SDS011;4529;51.360;12.474;2022-12-07T03:49:45;6.53;;;4.30;;
8986;SDS011;4529;51.360;12.474;2022-12-07T03:55:11;7.63;;;4.63;;
8986;SDS011;4529;51.360;12.474;2022-12-07T04:00:22;7.83;;;4.40;;
8986;SDS011;4529;51.360;12.474;2022-12-07T04:05:26;6.73;;;4.63;;
8986;SDS011;4529;51.360;12.474;2022-12-07T04:10:29;6.73;;;4.70;;
8986;SDS011;4529;51.360;12.474;2022-12-07T04:15:33;6.87;;;4.50;;
8986;SDS011;4529;51.360;12.474;2022-12-07T04:20:37;9.23;;;4.67;;
8986;SDS011;4529;51.360;12.474;2022-12-07T04:25:41;6.37;;;4.20;;
8986;SDS011;4529;51.360;12.474;2022-12-07T04:30:45;7.57;;;4.80;;
8986;SDS011;4529;51.360;12.474;2022-12-07T04:35:48;6.53;;;4.10;;
8986;SDS011;4529;51.360;12.474;2022-12-07T04:40:52;7.07;;;4.70;;
8986;SDS011;4529;51.360;12.474;2022-12-07T04:45:56;7.70;;;4.60;;
8986;SDS011;4529;51.360;12.474;2022-12-07T04:51:01;6.43;;;4.40;;
8986;SDS011;4529;51.360;12.474;2022-12-07T04:56:04;8.97;;;4.90;;
8986;SDS011;4529;51.360;12.474;2022-12-07T05:01:08;8.67;;;4.47;;
8986;SDS011;4529;51.360;12.474;2022-12-07T05:06:11;9.77;;;4.43;;
8986;SDS011;4529;51.360;12.474;2022-12-07T05:11:15;8.40;;;4.77;;
8986;SDS011;4529;51.360;12.474;2022-12-07T05:16:18;5.57;;;4.17;;
8986;SDS011;4529;51.360;12.474;2022-12-07T05:21:21;10.23;;;4.73;;
8986;SDS011;4529;51.360;12.474;2022-12-07T05:26:26;6.27;;;4.23;;
8986;SDS011;4529;51.360;12.474;2022-12-07T05:31:30;6.77;;;4.70;;
8986;SDS011;4529;51.360;12.474;2022-12-07T05:36:33;8.83;;;4.93;;
8986;SDS011;4529;51.360;12.474;2022-12-07T05:41:37;7.17;;;4.80;;
8986;SDS011;4529;51.360;12.474;2022-12-07T05:46:40;8.37;;;5.30;;
8986;SDS011;4529;51.360;12.474;2022-12-07T05:51:44;7.53;;;5.23;;
8986;SDS011;4529;51.360;12.474;2022-12-07T05:56:48;9.67;;;5.30;;
8986;SDS011;4529;51.360;12.474;2022-12-07T06:01:53;8.33;;;5.57;;
8986;SDS011;4529;51.360;12.474;2022-12-07T06:06:59;7.97;;;5.50;;
8986;SDS011;4529;51.360;12.474;2022-12-07T06:12:04;8.93;;;5.40;;
8986;SDS011;4529;51.360;12.474;2022-12-07T06:17:07;9.50;;;5.67;;
8986;SDS011;4529;51.360;12.474;2022-12-07T06:22:11;8.90;;;5.70;;
8986;SDS011;4529;51.360;12.474;2022-12-07T06:27:14;9.97;;;6.03;;
8986;SDS011;4529;51.360;12.474;2022-12-07T06:32:17;7.80;;;5.93;;
8986;SDS011;4529;51.360;12.474;2022-12-07T06:37:21;9.83;;;5.87;;
8986;SDS011;4529;51.360;12.474;2022-12-07T06:42:24;9.60;;;6.00;;
8986;SDS011;4529;51.360;12.474;2022-12-07T06:47:28;11.10;;;6.73;;
8986;SDS011;4529;51.360;12.474;2022-12-07T06:52:31;9.00;;;6.50;;
8986;SDS011;4529;51.360;12.474;2022-12-07T06:57:35;13.27;;;7.03;;
8986;SDS011;4529;51.360;12.474;2022-12-07T07:02:39;9.83;;;6.50;;
8986;SDS011;4529;51.360;12.474;2022-12-07T07:07:43;11.87;;;6.80;;
8986;SDS011;4529;51.360;12.474;2022-12-07T07:12:47;11.73;;;7.30;;
8986;SDS011;4529;51.360;12.474;2022-12-07T07:17:51;9.47;;;6.50;;
8986;SDS011;4529;51.360;12.474;2022-12-07T07:22:55;11.33;;;7.30;;
8986;SDS011;4529;51.360;12.474;2022-12-07T07:27:58;11.63;;;7.07;;
8986;SDS011;4529;51.360;12.474;2022-12-07T07:33:02;11.60;;;6.83;;
8986;SDS011;4529;51.360;12.474;2022-12-07T07:38:05;9.70;;;6.47;;
8986;SDS011;4529;51.360;12.474;2022-12-07T07:43:08;8.40;;;6.13;;
8986;SDS011;4529;51.360;12.474;2022-12-07T07:48:12;4.93;;;2.87;;
8986;SDS011;4529;51.360;12.474;2022-12-07T07:53:17;3.93;;;2.70;;
8986;SDS011;4529;51.360;12.474;2022-12-07T07:58:20;11.80;;;7.43;;
8986;SDS011;4529;51.360;12.474;2022-12-07T08:03:23;12.17;;;7.50;;
8986;SDS011;4529;51.360;12.474;2022-12-07T08:08:27;5.73;;;3.83;;
8986;SDS011;4529;51.360;12.474;2022-12-07T08:13:32;5.53;;;3.97;;
8986;SDS011;4529;51.360;12.474;2022-12-07T08:18:36;14.20;;;7.83;;
8986;SDS011;4529;51.360;12.474;2022-12-07T08:23:39;13.67;;;7.90;;
8986;SDS011;4529;51.360;12.474;2022-12-07T08:28:42;11.67;;;8.10;;
8986;SDS011;4529;51.360;12.474;2022-12-07T08:33:46;4.40;;;3.37;;
8986;SDS011;4529;51.360;12.474;2022-12-07T08:38:50;5.30;;;3.50;;
8986;SDS011;4529;51.360;12.474;2022-12-07T08:43:54;12.37;;;7.47;;
8986;SDS011;4529;51.360;12.474;2022-12-07T08:49:17;10.73;;;7.40;;
8986;SDS011;4529;51.360;12.474;2022-12-07T08:54:23;11.93;;;7.97;;
8986;SDS011;4529;51.360;12.474;2022-12-07T08:59:27;12.53;;;7.73;;
8986;SDS011;4529;51.360;12.474;2022-12-07T09:04:30;10.73;;;7.67;;
8986;SDS011;4529;51.360;12.474;2022-12-07T09:09:34;11.37;;;7.37;;
8986;SDS011;4529;51.360;12.474;2022-12-07T09:14:37;10.83;;;6.93;;
8986;SDS011;4529;51.360;12.474;2022-12-07T09:19:41;11.97;;;7.23;;
8986;SDS011;4529;51.360;12.474;2022-12-07T09:24:45;11.23;;;6.63;;
8986;SDS011;4529;51.360;12.474;2022-12-07T09:29:50;10.60;;;6.47;;
8986;SDS011;4529;51.360;12.474;2022-12-07T09:34:53;9.03;;;6.43;;
8986;SDS011;4529;51.360;12.474;2022-12-07T09:39:56;11.73;;;6.57;;
8986;SDS011;4529;51.360;12.474;2022-12-07T09:45:00;8.87;;;6.50;;
8986;SDS011;4529;51.360;12.474;2022-12-07T09:50:05;11.37;;;7.20;;
8986;SDS011;4529;51.360;12.474;2022-12-07T09:55:10;12.07;;;6.60;;
8986;SDS011;4529;51.360;12.474;2022-12-07T10:00:16;10.07;;;6.43;;
8986;SDS011;4529;51.360;12.474;2022-12-07T10:05:20;8.43;;;6.07;;
8986;SDS011;4529;51.360;12.474;2022-12-07T10:10:26;7.67;;;6.00;;
8986;SDS011;4529;51.360;12.474;2022-12-07T10:31:44;9.57;;;6.27;;
8986;SDS011;4529;51.360;12.474;2022-12-07T10:36:47;11.10;;;6.00;;
8986;SDS011;4529;51.360;12.474;2022-12-07T10:42:00;12.20;;;6.47;;
8986;SDS011;4529;51.360;12.474;2022-12-07T10:47:09;10.20;;;5.60;;
8986;SDS011;4529;51.360;12.474;2022-12-07T10:52:38;11.87;;;5.50;;
8986;SDS011;4529;51.360;12.474;2022-12-07T11:02:50;9.00;;;5.10;;
8986;SDS011;4529;51.360;12.474;2022-12-07T11:07:59;7.93;;;4.93;;
8986;SDS011;4529;51.360;12.474;2022-12-07T11:13:18;7.23;;;4.70;;
8986;SDS011;4529;51.360;12.474;2022-12-07T11:23:42;6.90;;;5.10;;
8986;SDS011;4529;51.360;12.474;2022-12-07T11:28:54;4.27;;;3.80;;
8986;SDS011;4529;51.360;12.474;2022-12-07T11:34:08;6.77;;;3.40;;
8986;SDS011;4529;51.360;12.474;2022-12-07T11:39:22;4.17;;;3.50;;
8986;SDS011;4529;51.360;12.474;2022-12-07T11:44:27;4.93;;;3.30;;
8986;SDS011;4529;51.360;12.474;2022-12-07T11:55:32;5.00;;;3.90;;
8986;SDS011;4529;51.360;12.474;2022-12-07T12:00:39;7.70;;;4.40;;
8986;SDS011;4529;51.360;12.474;2022-12-07T12:05:42;7.93;;;5.03;;
8986;SDS011;4529;51.360;12.474;2022-12-07T12:16:48;13.93;;;7.83;;
8986;SDS011;4529;51.360;12.474;2022-12-07T12:22:14;7.67;;;4.30;;
8986;SDS011;4529;51.360;12.474;2022-12-07T12:27:23;5.13;;;3.83;;
8986;SDS011;4529;51.360;12.474;2022-12-07T12:32:37;5.73;;;4.20;;
8986;SDS011;4529;51.360;12.474;2022-12-07T12:37:43;7.23;;;4.30;;
8986;SDS011;4529;51.360;12.474;2022-12-07T12:42:50;7.00;;;4.13;;
8986;SDS011;4529;51.360;12.474;2022-12-07T12:47:53;4.80;;;3.97;;
8986;SDS011;4529;51.360;12.474;2022-12-07T12:58:21;5.00;;;3.43;;
8986;SDS011;4529;51.360;12.474;2022-12-07T13:03:23;3.93;;;2.93;;
8986;SDS011;4529;51.360;12.474;2022-12-07T13:08:29;4.77;;;2.60;;
8986;SDS011;4529;51.360;12.474;2022-12-07T13:13:33;4.33;;;2.70;;
8986;SDS011;4529;51.360;12.474;2022-12-07T13:18:36;3.63;;;2.63;;
8986;SDS011;4529;51.360;12.474;2022-12-07T13:28:47;4.13;;;2.20;;
8986;SDS011;4529;51.360;12.474;2022-12-07T13:39:43;3.63;;;2.17;;
8986;SDS011;4529;51.360;12.474;2022-12-07T13:44:40;3.20;;;2.23;;
8986;SDS011;4529;51.360;12.474;2022-12-07T13:49:47;2.10;;;1.90;;
8986;SDS011;4529;51.360;12.474;2022-12-07T13:54:55;3.13;;;1.90;;
8986;SDS011;4529;51.360;12.474;2022-12-07T13:59:59;3.17;;;1.97;;
8986;SDS011;4529;51.360;12.474;2022-12-07T14:05:07;3.13;;;1.80;;
8986;SDS011;4529;51.360;12.474;2022-12-07T14:15:33;2.90;;;2.10;;
8986;SDS011;4529;51.360;12.474;2022-12-07T14:20:37;3.73;;;2.30;;
8986;SDS011;4529;51.360;12.474;2022-12-07T14:25:46;4.80;;;2.10;;
8986;SDS011;4529;51.360;12.474;2022-12-07T14:30:52;2.77;;;2.37;;
8986;SDS011;4529;51.360;12.474;2022-12-07T14:35:56;2.27;;;2.03;;
8986;SDS011;4529;51.360;12.474;2022-12-07T14:40:59;2.23;;;2.13;;
8986;SDS011;4529;51.360;12.474;2022-12-07T14:46:02;3.67;;;2.20;;
8986;SDS011;4529;51.360;12.474;2022-12-07T14:51:08;2.80;;;1.80;;
8986;SDS011;4529;51.360;12.474;2022-12-07T14:56:09;3.20;;;1.90;;
8986;SDS011;4529;51.360;12.474;2022-12-07T15:01:12;2.30;;;2.07;;
8986;SDS011;4529;51.360;12.474;2022-12-07T15:06:17;3.60;;;2.23;;
8986;SDS011;4529;51.360;12.474;2022-12-07T15:11:21;2.70;;;2.00;;
8986;SDS011;4529;51.360;12.474;2022-12-07T15:16:25;5.97;;;2.10;;
8986;SDS011;4529;51.360;12.474;2022-12-07T15:21:28;4.63;;;1.93;;
8986;SDS011;4529;51.360;12.474;2022-12-07T15:26:32;2.60;;;1.80;;
8986;SDS011;4529;51.360;12.474;2022-12-07T15:31:35;2.77;;;1.60;;
8986;SDS011;4529;51.360;12.474;2022-12-07T15:36:39;4.37;;;1.87;;
8986;SDS011;4529;51.360;12.474;2022-12-07T15:41:43;4.03;;;1.80;;
8986;SDS011;4529;51.360;12.474;2022-12-07T15:46:47;4.40;;;1.93;;
8986;SDS011;4529;51.360;12.474;2022-12-07T15:51:50;5.40;;;2.33;;
8986;SDS011;4529;51.360;12.474;2022-12-07T15:56:54;2.43;;;1.70;;
8986;SDS011;4529;51.360;12.474;2022-12-07T16:01:58;3.07;;;1.80;;
8986;SDS011;4529;51.360;12.474;2022-12-07T16:07:02;4.20;;;2.10;;
8986;SDS011;4529;51.360;12.474;2022-12-07T16:12:06;3.47;;;2.00;;
8986;SDS011;4529;51.360;12.474;2022-12-07T16:17:09;5.33;;;2.10;;
8986;SDS011;4529;51.360;12.474;2022-12-07T16:22:13;4.37;;;2.20;;
8986;SDS011;4529;51.360;12.474;2022-12-07T16:27:17;2.40;;;1.73;;
8986;SDS011;4529;51.360;12.474;2022-12-07T16:32:21;4.10;;;1.70;;
8986;SDS011;4529;51.360;12.474;2022-12-07T16:37:25;2.50;;;2.00;;
8986;SDS011;4529;51.360;12.474;2022-12-07T16:42:32;2.50;;;1.90;;
8986;SDS011;4529;51.360;12.474;2022-12-07T16:47:36;2.37;;;2.17;;
8986;SDS011;4529;51.360;12.474;2022-12-07T16:52:41;4.50;;;2.23;;
8986;SDS011;4529;51.360;12.474;2022-12-07T16:57:44;3.50;;;2.00;;
8986;SDS011;4529;51.360;12.474;2022-12-07T17:02:48;2.83;;;2.07;;
8986;SDS011;4529;51.360;12.474;2022-12-07T17:07:52;3.70;;;2.03;;
8986;SDS011;4529;51.360;12.474;2022-12-07T17:12:56;4.03;;;2.30;;
8986;SDS011;4529;51.360;12.474;2022-12-07T17:17:59;5.57;;;3.97;;
8986;SDS011;4529;51.360;12.474;2022-12-07T17:23:03;5.53;;;3.70;;
8986;SDS011;4529;51.360;12.474;2022-12-07T17:28:07;9.20;;;5.30;;
8986;SDS011;4529;51.360;12.474;2022-12-07T17:33:10;8.43;;;5.60;;
8986;SDS011;4529;51.360;12.474;2022-12-07T17:38:14;6.87;;;4.30;;
8986;SDS011;4529;51.360;12.474;2022-12-07T17:43:18;7.03;;;3.50;;
8986;SDS011;4529;51.360;12.474;2022-12-07T17:48:22;4.40;;;3.50;;
8986;SDS011;4529;51.360;12.474;2022-12-07T17:53:26;3.50;;;3.00;;
8986;SDS011;4529;51.360;12.474;2022-12-07T17:58:29;5.87;;;3.40;;
8986;SDS011;4529;51.360;12.474;2022-12-07T18:03:32;4.93;;;3.53;;
8986;SDS011;4529;51.360;12.474;2022-12-07T18:08:37;4.57;;;2.80;;
8986;SDS011;4529;51.360;12.474;2022-12-07T18:13:41;6.47;;;2.90;;
8986;SDS011;4529;51.360;12.474;2022-12-07T18:18:44;5.93;;;3.50;;
8986;SDS011;4529;51.360;12.474;2022-12-07T18:23:49;6.67;;;3.53;;
8986;SDS011;4529;51.360;12.474;2022-12-07T18:28:51;7.50;;;3.63;;
8986;SDS011;4529;51.360;12.474;2022-12-07T18:33:55;6.97;;;3.50;;
8986;SDS011;4529;51.360;12.474;2022-12-07T18:38:59;5.20;;;3.20;;
8986;SDS011;4529;51.360;12.474;2022-12-07T18:44:02;7.17;;;3.50;;
8986;SDS011;4529;51.360;12.474;2022-12-07T18:49:05;4.20;;;3.30;;
8986;SDS011;4529;51.360;12.474;2022-12-07T18:54:10;5.53;;;3.10;;
8986;SDS011;4529;51.360;12.474;2022-12-07T18:59:14;4.33;;;2.93;;
8986;SDS011;4529;51.360;12.474;2022-12-07T19:04:17;5.60;;;3.07;;
8986;SDS011;4529;51.360;12.474;2022-12-07T19:09:21;5.83;;;3.33;;
8986;SDS011;4529;51.360;12.474;2022-12-07T19:14:25;6.03;;;3.17;;
8986;SDS011;4529;51.360;12.474;2022-12-07T19:19:29;7.57;;;3.53;;
8986;SDS011;4529;51.360;12.474;2022-12-07T19:24:32;4.07;;;3.10;;
8986;SDS011;4529;51.360;12.474;2022-12-07T19:29:37;5.50;;;3.37;;
8986;SDS011;4529;51.360;12.474;2022-12-07T19:34:40;5.50;;;3.43;;
8986;SDS011;4529;51.360;12.474;2022-12-07T19:39:43;6.10;;;3.20;;
8986;SDS011;4529;51.360;12.474;2022-12-07T19:44:47;8.77;;;3.37;;
8986;SDS011;4529;51.360;12.474;2022-12-07T19:49:51;4.03;;;3.30;;
8986;SDS011;4529;51.360;12.474;2022-12-07T19:54:55;7.00;;;3.00;;
8986;SDS011;4529;51.360;12.474;2022-12-07T19:59:59;4.93;;;3.00;;
8986;SDS011;4529;51.360;12.474;2022-12-07T20:05:04;4.43;;;2.97;;
8986;SDS011;4529;51.360;12.474;2022-12-07T20:10:08;5.67;;;3.20;;
8986;SDS011;4529;51.360;12.474;2022-12-07T20:15:12;5.30;;;3.43;;
8986;SDS011;4529;51.360;12.474;2022-12-07T20:20:17;8.07;;;3.30;;
8986;SDS011;4529;51.360;12.474;2022-12-07T20:25:21;6.37;;;3.33;;
8986;SDS011;4529;51.360;12.474;2022-12-07T20:30:25;5.00;;;3.20;;
8986;SDS011;4529;51.360;12.474;2022-12-07T20:35:28;6.50;;;4.00;;
8986;SDS011;4529;51.360;12.474;2022-12-07T20:40:32;5.77;;;3.37;;
8986;SDS011;4529;51.360;12.474;2022-12-07T20:45:35;5.13;;;3.17;;
8986;SDS011;4529;51.360;12.474;2022-12-07T20:50:39;5.40;;;3.43;;
8986;SDS011;4529;51.360;12.474;2022-12-07T20:55:43;5.63;;;3.50;;
8986;SDS011;4529;51.360;12.474;2022-12-07T21:00:46;6.53;;;3.60;;
8986;SDS011;4529;51.360;12.474;2022-12-07T21:05:50;5.40;;;3.67;;
8986;SDS011;4529;51.360;12.474;2022-12-07T21:10:54;4.33;;;3.47;;
8986;SDS011;4529;51.360;12.474;2022-12-07T21:15:57;6.70;;;3.50;;
8986;SDS011;4529;51.360;12.474;2022-12-07T21:21:01;7.03;;;3.53;;
8986;SDS011;4529;51.360;12.474;2022-12-07T21:26:08;4.77;;;3.53;;
8986;SDS011;4529;51.360;12.474;2022-12-07T21:31:10;5.53;;;3.87;;
8986;SDS011;4529;51.360;12.474;2022-12-07T21:36:16;5.40;;;3.37;;
8986;SDS011;4529;51.360;12.474;2022-12-07T21:41:22;5.57;;;3.80;;
8986;SDS011;4529;51.360;12.474;2022-12-07T21:46:23;6.23;;;3.80;;
8986;SDS011;4529;51.360;12.474;2022-12-07T21:51:27;6.03;;;3.70;;
8986;SDS011;4529;51.360;12.474;2022-12-07T21:56:33;6.43;;;3.67;;
8986;SDS011;4529;51.360;12.474;2022-12-07T22:01:42;5.40;;;3.77;;
8986;SDS011;4529;51.360;12.474;2022-12-07T22:06:46;7.27;;;3.50;;
8986;SDS011;4529;51.360;12.474;2022-12-07T22:11:50;8.83;;;3.50;;
8986;SDS011;4529;51.360;12.474;2022-12-07T22:16:54;6.47;;;3.43;;
8986;SDS011;4529;51.360;12.474;2022-12-07T22:21:57;5.70;;;3.20;;
8986;SDS011;4529;51.360;12.474;2022-12-07T22:27:00;4.97;;;3.30;;
8986;SDS011;4529;51.360;12.474;2022-12-07T22:32:05;8.53;;;3.80;;
8986;SDS011;4529;51.360;12.474;2022-12-07T22:37:09;4.83;;;3.50;;
8986;SDS011;4529;51.360;12.474;2022-12-07T22:42:12;4.93;;;3.50;;
8986;SDS011;4529;51.360;12.474;2022-12-07T22:47:16;6.93;;;3.50;;
8986;SDS011;4529;51.360;12.474;2022-12-07T22:52:19;6.23;;;3.37;;
8986;SDS011;4529;51.360;12.474;2022-12-07T22:57:23;4.77;;;3.27;;
8986;SDS011;4529;51.360;12.474;2022-12-07T23:02:27;5.30;;;3.60;;
8986;SDS011;4529;51.360;12.474;2022-12-07T23:07:30;4.53;;;3.40;;
8986;SDS011;4529;51.360;12.474;2022-12-07T23:12:33;5.67;;;3.47;;
8986;SDS011;4529;51.360;12.474;2022-12-07T23:17:38;7.13;;;3.70;;
8986;SDS011;4529;51.360;12.474;2022-12-07T23:22:42;5.33;;;3.63;;
8986;SDS011;4529;51.360;12.474;2022-12-07T23:27:45;5.40;;;3.63;;
8986;SDS011;4529;51.360;12.474;2022-12-07T23:32:49;6.10;;;3.50;;
8986;SDS011;4529;51.360;12.474;2022-12-07T23:37:52;6.93;;;3.60;;
8986;SDS011;4529;51.360;12.474;2022-12-07T23:42:56;7.83;;;3.90;;
8986;SDS011;4529;51.360;12.474;2022-12-07T23:48:00;6.77;;;4.00;;
8986;SDS011;4529;51.360;12.474;2022-12-07T23:53:04;6.47;;;4.10;;
8986;SDS011;4529;51.360;12.474;2022-12-07T23:58:07;5.33;;;4.10;;
